Time;durP1;ratioP1;P1;durP2;ratioP2;P2;SDS_P1;SDS_P2;PMS_P1;PMS_P2;Temp;Humidity;BMP_temperature;BMP_pressure;BME280_temperature;BME280_humidity;BME280_pressure;Samples;Min_cycle;Max_cycle;Signal;HPM_P1;HPM_P2
2021/12/04 00:01:53;;;;;;;;;3.00;1.25;;;;;10.61;73.08;99411.97;5058578;28;45442;-44
2021/12/04 00:04:22;;;;;;;;;3.00;3.00;;;;;10.66;73.03;99410.03;5058283;28;45638;-44
2021/12/04 00:06:49;;;;;;;;;4.00;4.00;;;;;10.68;73.07;99397.72;5058559;28;45392;-45
2021/12/04 00:09:17;;;;;;;;;4.00;4.00;;;;;10.70;73.56;99386.25;5059488;28;45481;-45
2021/12/04 00:11:51;;;;;;;;;2.25;2.00;;;;;10.78;73.23;99385.97;5059911;28;45237;-44
2021/12/04 00:14:17;;;;;;;;;2.75;2.25;;;;;10.80;73.46;99386.75;5059716;28;45449;-45
2021/12/04 00:16:42;;;;;;;;;2.75;2.50;;;;;10.87;73.04;99374.25;5059617;28;46168;-47
2021/12/04 00:19:08;;;;;;;;;1.50;1.50;;;;;10.92;73.29;99372.31;5061493;28;45432;-46
2021/12/04 00:21:33;;;;;;;;;3.50;2.75;;;;;10.97;73.15;99351.97;5063270;28;45331;-47
2021/12/04 00:23:58;;;;;;;;;1.75;1.75;;;;;10.99;73.37;99352.78;5063050;28;45277;-44
2021/12/04 00:26:23;;;;;;;;;1.75;1.00;;;;;11.06;73.26;99351.59;5060384;28;45431;-44
2021/12/04 00:28:49;;;;;;;;;2.00;2.00;;;;;11.06;73.71;99353.38;5061379;28;45489;-47
2021/12/04 00:31:14;;;;;;;;;0.67;0.67;;;;;11.10;73.82;99346.25;5063686;28;45239;-47
2021/12/04 00:33:43;;;;;;;;;0.67;0.67;;;;;11.20;73.32;99344.97;5063039;28;45406;-45
2021/12/04 00:36:14;;;;;;;;;0.67;0.67;;;;;11.17;74.00;99339.81;5063253;28;47229;-46
2021/12/04 00:49:18;;;;;;;;;1.00;1.00;;;;;11.40;73.88;99353.84;5062883;28;45286;-47
2021/12/04 00:51:50;;;;;;;;;1.00;0.00;;;;;11.37;74.54;99339.03;5062863;28;45469;-46
2021/12/04 00:54:17;;;;;;;;;0.00;0.00;;;;;11.45;74.31;99346.63;5062811;28;45306;-48
2021/12/04 00:56:43;;;;;;;;;0.00;0.00;;;;;11.50;74.85;99355.19;5061303;28;47388;-47
2021/12/04 00:59:10;;;;;;;;;1.00;1.00;;;;;11.58;74.22;99339.09;5062792;28;45442;-45
2021/12/04 01:01:40;;;;;;;;;0.67;0.00;;;;;11.63;74.27;99331.88;5062452;28;45275;-49
2021/12/04 01:04:14;;;;;;;;;0.00;0.00;;;;;11.62;74.06;99315.25;5062585;28;45237;-47
2021/12/04 01:06:40;;;;;;;;;0.75;0.75;;;;;11.67;74.80;99329.06;5062612;28;46571;-48
2021/12/04 01:09:08;;;;;;;;;1.00;1.00;;;;;11.70;75.08;99328.91;5061159;28;45426;-47
2021/12/04 01:11:34;;;;;;;;;0.67;0.00;;;;;11.75;75.00;99322.59;5062654;28;45413;-46
2021/12/04 01:14:00;;;;;;;;;0.00;0.00;;;;;11.78;75.41;99335.66;5062366;28;45376;-45
2021/12/04 01:16:25;;;;;;;;;1.00;0.00;;;;;11.81;75.25;99339.00;5062784;28;45334;-46
2021/12/04 01:18:51;;;;;;;;;0.25;0.25;;;;;11.87;74.82;99329.97;5062003;28;45257;-46
2021/12/04 01:21:16;;;;;;;;;1.00;0.00;;;;;11.94;74.79;99334.06;5062723;28;45453;-46
2021/12/04 01:23:41;;;;;;;;;0.00;0.00;;;;;11.97;75.09;99330.50;5077783;28;45469;-48
2021/12/04 01:26:07;;;;;;;;;1.00;0.00;;;;;11.99;74.92;99355.00;5062250;28;45314;-47
2021/12/04 01:28:33;;;;;;;;;2.00;0.00;;;;;12.02;75.11;99339.03;5062240;28;45311;-45
2021/12/04 01:30:58;;;;;;;;;0.00;0.00;;;;;12.06;74.86;99342.41;5060857;28;45302;-44
2021/12/04 01:33:24;;;;;;;;;0.00;0.00;;;;;12.10;74.89;99336.09;5062097;28;45449;-44
2021/12/04 01:35:49;;;;;;;;;0.25;0.25;;;;;12.11;74.98;99346.56;5062306;28;46064;-45
2021/12/04 01:38:15;;;;;;;;;0.00;0.00;;;;;12.11;75.25;99340.44;5062043;28;45283;-45
2021/12/04 01:40:40;;;;;;;;;0.00;0.00;;;;;12.15;74.87;99342.00;5062293;28;45233;-47
2021/12/04 01:43:07;;;;;;;;;0.00;0.00;;;;;12.20;75.03;99345.31;5062096;28;45346;-44
2021/12/04 01:45:32;;;;;;;;;0.00;0.00;;;;;12.22;74.96;99322.38;5061932;28;45446;-46
2021/12/04 01:48:03;;;;;;;;;0.00;0.00;;;;;12.23;75.13;99334.63;5061605;28;45359;-44
2021/12/04 01:50:30;;;;;;;;;0.00;0.00;;;;;12.27;74.81;99323.03;5062193;28;45430;-45
2021/12/04 01:52:57;;;;;;;;;0.00;0.00;;;;;12.31;74.89;99332.53;5061824;28;45646;-45
2021/12/04 01:55:34;;;;;;;;;0.00;0.00;;;;;12.32;74.36;99331.59;5061726;28;46329;-48
2021/12/04 01:58:01;;;;;;;;;1.67;0.33;;;;;12.33;74.76;99335.94;5061543;28;45319;-46
2021/12/04 02:00:32;;;;;;;;;0.00;0.00;;;;;12.33;74.72;99338.59;5062205;28;45401;-45
2021/12/04 02:02:58;;;;;;;;;0.33;0.33;;;;;12.36;74.32;99334.94;5061414;28;45434;-47
2021/12/04 02:05:23;;;;;;;;;1.00;0.00;;;;;12.43;73.68;99330.28;5060462;28;45898;-45
2021/12/04 02:07:49;;;;;;;;;0.00;0.00;;;;;12.43;73.74;99325.88;5061693;28;45323;-45
2021/12/04 02:10:14;;;;;;;;;0.33;0.33;;;;;12.45;74.31;99331.06;5061693;28;45504;-48
2021/12/04 02:12:40;;;;;;;;;0.00;0.00;;;;;12.42;74.55;99331.22;5061601;28;45398;-46
2021/12/04 02:15:10;;;;;;;;;0.00;0.00;;;;;12.43;75.17;99336.41;5061525;28;46050;-44
2021/12/04 02:17:35;;;;;;;;;1.33;0.00;;;;;12.49;74.48;99330.88;5061332;28;45476;-49
2021/12/04 02:20:01;;;;;;;;;1.00;0.00;;;;;12.53;74.30;99336.84;5061583;28;45895;-45
2021/12/04 02:22:26;;;;;;;;;0.00;0.00;;;;;12.54;74.13;99328.03;5061394;28;45403;-45
2021/12/04 02:24:51;;;;;;;;;0.00;0.00;;;;;12.57;74.32;99338.44;5061310;28;45248;-45
2021/12/04 02:27:17;;;;;;;;;0.00;0.00;;;;;12.57;74.26;99327.88;5061415;28;45183;-46
2021/12/04 02:29:48;;;;;;;;;0.33;0.33;;;;;12.58;74.43;99329.59;5061586;28;45603;-47
2021/12/04 02:32:18;;;;;;;;;0.00;0.00;;;;;12.58;74.00;99342.78;5061304;28;45486;-44
2021/12/04 02:34:43;;;;;;;;;0.00;0.00;;;;;12.60;74.38;99334.78;5060949;28;45369;-46
2021/12/04 02:37:09;;;;;;;;;0.00;0.00;;;;;12.63;74.20;99340.78;5061080;28;45326;-48
2021/12/04 02:39:37;;;;;;;;;0.00;0.00;;;;;12.68;74.09;99337.94;5061212;28;45438;-46
2021/12/04 02:42:06;;;;;;;;;0.00;0.00;;;;;12.68;73.89;99328.25;5060353;28;45407;-50
2021/12/04 02:44:35;;;;;;;;;0.33;0.00;;;;;12.73;73.72;99345.63;5060933;28;47060;-52
2021/12/04 02:47:01;;;;;;;;;1.00;0.00;;;;;12.72;74.26;99336.03;5059462;28;45350;-50
2021/12/04 02:49:26;;;;;;;;;0.00;0.00;;;;;12.66;74.09;99321.34;5061089;28;45364;-50
2021/12/04 02:51:52;;;;;;;;;0.00;0.00;;;;;12.74;73.63;99337.69;5060949;28;45496;-45
2021/12/04 02:54:17;;;;;;;;;0.00;0.00;;;;;12.75;73.78;99346.44;5060962;28;46207;-48
2021/12/04 02:56:48;;;;;;;;;0.00;0.00;;;;;12.77;73.71;99342.78;5059512;28;45323;-45
2021/12/04 02:59:14;;;;;;;;;0.00;0.00;;;;;12.76;73.89;99341.06;5061052;28;45309;-47
2021/12/04 03:01:40;;;;;;;;;0.00;0.00;;;;;12.75;73.60;99344.63;5060578;28;45338;-47
2021/12/04 03:04:11;;;;;;;;;0.00;0.00;;;;;12.80;73.58;99347.06;5059295;28;46283;-45
2021/12/04 03:06:45;;;;;;;;;0.00;0.00;;;;;12.81;73.70;99340.88;5060811;28;45298;-45
2021/12/04 03:09:10;;;;;;;;;0.00;0.00;;;;;12.83;73.44;99350.44;5060689;28;45224;-47
2021/12/04 03:11:36;;;;;;;;;0.33;0.00;;;;;12.87;73.51;99356.41;5060766;28;45302;-49
2021/12/04 03:14:02;;;;;;;;;1.00;0.00;;;;;12.89;73.33;99354.53;5060469;28;45991;-46
2021/12/04 03:16:28;;;;;;;;;0.00;0.00;;;;;12.88;73.42;99341.44;5060885;28;45209;-46
2021/12/04 03:18:53;;;;;;;;;0.00;0.00;;;;;12.92;73.08;99345.66;5060435;28;45366;-46
2021/12/04 03:21:19;;;;;;;;;0.00;0.00;;;;;12.89;73.01;99338.72;5060566;28;45491;-48
2021/12/04 03:24:03;;;;;;;;;0.33;0.00;;;;;12.93;73.04;99334.16;5060261;28;46052;-47
2021/12/04 03:26:28;;;;;;;;;0.00;0.00;;;;;12.87;73.19;99340.59;5060543;28;45455;-45
2021/12/04 03:28:56;;;;;;;;;2.33;0.00;;;;;12.93;73.02;99340.31;5060544;28;45316;-49
2021/12/04 03:42:17;;;;;;;;;1.00;0.00;;;;;13.00;72.92;99347.03;5060314;28;45232;-47
2021/12/04 03:44:43;;;;;;;;;0.00;0.00;;;;;13.01;72.59;99334.69;5060164;28;45273;-45
2021/12/04 03:47:09;;;;;;;;;0.00;0.00;;;;;13.05;72.94;99345.94;5060126;28;45436;-44
2021/12/04 03:49:35;;;;;;;;;0.00;0.00;;;;;13.03;72.45;99339.88;5060101;28;45319;-45
2021/12/04 03:52:00;;;;;;;;;0.00;0.00;;;;;13.04;72.63;99342.44;5060014;28;45533;-47
2021/12/04 03:54:26;;;;;;;;;0.00;0.00;;;;;13.06;72.88;99350.31;5059904;28;45630;-45
2021/12/04 03:57:02;;;;;;;;;0.00;0.00;;;;;13.09;72.42;99339.59;5075579;28;45268;-44
2021/12/04 03:59:28;;;;;;;;;0.00;0.00;;;;;13.08;72.56;99343.16;5060073;28;45329;-45
2021/12/04 04:01:53;;;;;;;;;0.00;0.00;;;;;13.09;72.52;99339.59;5059848;28;45219;-45
2021/12/04 04:04:19;;;;;;;;;1.00;0.00;;;;;13.10;72.22;99342.16;5058302;28;47390;-46
2021/12/04 04:06:44;;;;;;;;;0.00;0.00;;;;;13.08;72.30;99340.50;5060296;28;45263;-45
2021/12/04 04:09:10;;;;;;;;;0.00;0.00;;;;;13.06;72.67;99339.75;5059910;28;45507;-45
2021/12/04 04:11:36;;;;;;;;;0.00;0.00;;;;;13.10;72.53;99331.59;5060037;28;45268;-45
2021/12/04 04:14:03;;;;;;;;;0.00;0.00;;;;;13.10;72.60;99330.75;5059731;28;45500;-47
2021/12/04 04:16:29;;;;;;;;;0.00;0.00;;;;;13.09;72.46;99337.81;5060080;28;45319;-44
2021/12/04 04:18:54;;;;;;;;;0.00;0.00;;;;;13.09;72.25;99337.81;5059532;28;45362;-45
2021/12/04 04:21:19;;;;;;;;;0.00;0.00;;;;;13.09;72.50;99329.03;5041713;28;45373;-47
2021/12/04 04:23:45;;;;;;;;;0.00;0.00;;;;;13.09;72.48;99321.13;5059670;28;46189;-47
2021/12/04 04:26:10;;;;;;;;;0.00;0.00;;;;;13.12;72.37;99334.19;5059766;28;45497;-47
2021/12/04 04:28:35;;;;;;;;;1.00;1.00;;;;;13.12;72.40;99329.75;5059791;28;45303;-48
2021/12/04 04:31:01;;;;;;;;;0.25;0.25;;;;;13.13;72.60;99325.31;5059588;28;45330;-46
2021/12/04 04:33:26;;;;;;;;;0.00;0.00;;;;;13.13;72.49;99325.31;5059238;28;45710;-45
2021/12/04 04:36:17;;;;;;;;;0.00;0.00;;;;;13.10;72.79;99325.50;5059689;28;45403;-44
2021/12/04 04:39:39;;;;;;;;;1.00;0.00;;;;;13.13;72.29;99330.59;5059420;28;45345;-46
2021/12/04 05:14:36;;;;;;;;;0.00;0.00;;;;;13.05;72.32;99309.03;5062429;28;45391;-44
2021/12/04 05:17:06;;;;;;;;;1.00;1.00;;;;;13.06;72.19;99302.84;5062404;28;46053;-44
2021/12/04 05:19:42;;;;;;;;;0.67;0.67;;;;;13.02;71.90;99299.47;5049131;28;45416;-46
2021/12/04 05:22:09;;;;;;;;;0.00;0.00;;;;;13.05;72.21;99298.47;5062475;28;45305;-47
2021/12/04 05:24:34;;;;;;;;;0.00;0.00;;;;;13.09;71.86;99302.69;5062395;28;45485;-47
2021/12/04 05:27:00;;;;;;;;;0.00;0.00;;;;;13.06;71.57;99295.75;5062213;28;45157;-45
2021/12/04 05:29:26;;;;;;;;;0.00;0.00;;;;;13.08;71.99;99291.28;5062465;28;45223;-47
2021/12/04 05:31:51;;;;;;;;;2.00;0.67;;;;;13.09;71.62;99289.50;5062462;28;45240;-48
2021/12/04 05:34:17;;;;;;;;;0.33;0.00;;;;;13.11;72.05;99285.00;5062163;28;45208;-46
2021/12/04 05:36:43;;;;;;;;;0.00;0.00;;;;;13.10;72.05;99281.50;5062088;28;45241;-48
2021/12/04 05:39:10;;;;;;;;;0.67;0.00;;;;;13.11;71.92;99291.13;5062158;28;45407;-47
2021/12/04 05:41:36;;;;;;;;;1.67;0.00;;;;;13.15;71.51;99291.84;5061154;28;45279;-45
2021/12/04 05:44:06;;;;;;;;;0.00;0.00;;;;;13.17;71.94;99297.91;5062085;28;45434;-45
2021/12/04 05:46:46;;;;;;;;;1.00;0.00;;;;;13.14;71.87;99290.13;5061649;28;47289;-45
2021/12/04 05:49:22;;;;;;;;;3.00;0.00;;;;;13.19;71.73;99305.72;5061827;28;45323;-44
2021/12/04 05:54:32;;;;;;;;;1.00;1.00;;;;;13.19;71.39;99309.22;5061780;28;45199;-44
2021/12/04 05:56:59;;;;;;;;;2.00;0.00;;;;;13.20;71.61;99308.28;5049502;28;46226;-48
2021/12/04 05:59:25;;;;;;;;;0.00;0.00;;;;;13.20;71.30;99308.28;5061644;28;45255;-45
2021/12/04 06:01:50;;;;;;;;;0.00;0.00;;;;;13.20;71.32;99313.56;5061712;28;45299;-47
2021/12/04 06:04:15;;;;;;;;;0.00;0.00;;;;;13.20;71.43;99299.53;5060204;28;45446;-46
2021/12/04 06:06:43;;;;;;;;;1.00;1.00;;;;;13.15;71.33;99281.28;5061793;28;45312;-48
2021/12/04 06:09:09;;;;;;;;;0.00;0.00;;;;;13.21;71.40;99301.25;5061538;28;45398;-47
2021/12/04 06:11:34;;;;;;;;;0.00;0.00;;;;;13.23;71.68;99302.00;5060420;28;45421;-46
2021/12/04 06:13:59;;;;;;;;;0.00;0.00;;;;;13.23;71.31;99302.00;5061748;28;45386;-49
2021/12/04 06:16:25;;;;;;;;;0.00;0.00;;;;;13.23;71.22;99305.53;5059033;28;46329;-46
2021/12/04 06:18:55;;;;;;;;;0.25;0.25;;;;;13.23;71.12;99305.53;5061167;28;45299;-45
2021/12/04 06:24:06;;;;;;;;;0.50;0.00;;;;;13.23;71.41;99294.97;5061324;28;45293;-44
2021/12/04 06:26:32;;;;;;;;;1.00;0.75;;;;;13.23;71.29;99291.47;5061308;28;45312;-47
2021/12/04 06:28:58;;;;;;;;;0.67;0.00;;;;;13.24;70.95;99294.00;5061355;28;46331;-49
2021/12/04 06:31:24;;;;;;;;;1.00;1.00;;;;;13.24;71.20;99295.81;5060265;28;45363;-48
2021/12/04 06:33:50;;;;;;;;;2.33;1.00;;;;;13.26;71.20;99288.69;5061012;28;45362;-46
2021/12/04 06:36:16;;;;;;;;;1.00;1.00;;;;;13.27;71.33;99285.97;5061159;28;45488;-46
2021/12/04 06:38:42;;;;;;;;;0.67;0.67;;;;;13.26;70.91;99278.97;5060988;28;45410;-48
2021/12/04 06:41:08;;;;;;;;;1.00;1.00;;;;;13.27;70.72;99279.81;5061430;28;45446;-45
2021/12/04 06:43:34;;;;;;;;;0.00;0.00;;;;;13.26;71.00;99267.59;5059844;28;45419;-46
2021/12/04 06:46:01;;;;;;;;;0.33;0.33;;;;;13.27;70.66;99270.16;5060946;28;46682;-45
2021/12/04 06:49:32;;;;;;;;;2.00;2.00;;;;;13.28;70.92;99271.84;5060646;28;45208;-46
2021/12/04 06:51:28;;;;;;;;;1.25;1.25;;;;;13.30;71.22;99282.31;5060387;28;45341;-44
2021/12/04 06:54:05;;;;;;;;;1.00;1.00;;;;;13.29;70.69;99281.47;5060836;28;45481;-45
2021/12/04 06:56:39;;;;;;;;;0.50;0.50;;;;;13.30;71.17;99283.16;5059540;28;47675;-46
2021/12/04 06:59:11;;;;;;;;;1.00;0.00;;;;;13.31;71.14;99268.22;5059527;28;45255;-47
2021/12/04 07:01:39;;;;;;;;;1.00;1.00;;;;;13.31;71.00;99270.84;5059439;28;45371;-46
2021/12/04 07:04:05;;;;;;;;;0.00;0.00;;;;;13.30;70.88;99274.41;5060447;28;45454;-44
2021/12/04 07:06:31;;;;;;;;;1.00;1.00;;;;;13.28;71.16;99271.84;5060545;28;45228;-45
2021/12/04 07:08:58;;;;;;;;;1.00;1.00;;;;;13.27;71.16;99270.16;5060770;28;45189;-46
2021/12/04 07:11:24;;;;;;;;;0.00;0.00;;;;;13.26;70.98;99271.06;5059355;28;45359;-48
2021/12/04 07:13:50;;;;;;;;;0.00;0.00;;;;;13.23;71.02;99258.03;5060711;28;45333;-45
2021/12/04 07:16:18;;;;;;;;;2.25;1.00;;;;;13.24;71.59;99249.16;5060548;28;46701;-46
2021/12/04 07:18:43;;;;;;;;;1.00;1.00;;;;;13.21;71.23;99249.34;5060279;28;45325;-47
2021/12/04 07:21:09;;;;;;;;;2.00;2.00;;;;;13.20;71.46;99252.06;5060564;28;45336;-45
2021/12/04 07:23:35;;;;;;;;;2.00;1.00;;;;;13.15;71.89;99247.00;5060815;28;45224;-46
2021/12/04 07:26:01;;;;;;;;;1.00;1.00;;;;;13.13;71.45;99254.13;5060165;28;46947;-45
2021/12/04 07:28:26;;;;;;;;;1.00;1.00;;;;;13.12;71.54;99248.00;5058811;28;45644;-45
2021/12/04 07:30:52;;;;;;;;;2.00;1.75;;;;;13.15;71.41;99252.28;5060258;28;45280;-45
2021/12/04 07:33:18;;;;;;;;;1.25;1.25;;;;;13.09;71.59;99248.13;5060027;28;45303;-45
2021/12/04 07:35:44;;;;;;;;;1.00;1.00;;;;;13.11;71.42;99248.09;5060271;28;46028;-46
2021/12/04 07:38:10;;;;;;;;;2.00;2.00;;;;;13.11;71.98;99240.16;5060124;28;45466;-45
2021/12/04 07:40:37;;;;;;;;;5.00;5.00;;;;;13.06;71.73;99243.03;5058260;28;45317;-44
2021/12/04 07:43:03;;;;;;;;;5.00;5.00;;;;;13.08;71.77;99241.19;5059215;28;45289;-44
2021/12/04 07:45:28;;;;;;;;;6.50;6.50;;;;;13.10;71.76;99249.00;5059979;28;46289;-45
2021/12/04 07:47:54;;;;;;;;;7.25;5.50;;;;;13.04;71.85;99244.88;5059296;28;45333;-49
2021/12/04 07:50:19;;;;;;;;;5.00;5.00;;;;;13.04;71.91;99249.28;5059636;28;45290;-48
2021/12/04 07:52:44;;;;;;;;;4.25;4.25;;;;;12.97;71.88;99256.66;5059739;28;45334;-46
2021/12/04 07:55:10;;;;;;;;;3.00;2.00;;;;;13.01;71.99;99256.41;5059711;28;46373;-49
2021/12/04 07:57:36;;;;;;;;;4.25;2.00;;;;;13.00;72.42;99257.38;5058583;28;45320;-47
2021/12/04 08:00:08;;;;;;;;;2.50;1.00;;;;;12.94;72.50;99259.44;5059960;28;45403;-46
2021/12/04 08:02:33;;;;;;;;;1.00;1.00;;;;;12.94;72.62;99260.31;5059336;28;45308;-49
2021/12/04 08:04:59;;;;;;;;;0.00;0.00;;;;;12.89;72.70;99254.38;5059616;28;45214;-45
2021/12/04 08:07:24;;;;;;;;;0.33;0.33;;;;;12.91;72.29;99255.16;5059372;28;45267;-47
2021/12/04 08:09:49;;;;;;;;;0.00;0.00;;;;;12.91;72.41;99256.94;5060010;28;45423;-47
2021/12/04 08:12:15;;;;;;;;;0.00;0.00;;;;;12.91;72.61;99270.97;5059813;28;45247;-48
2021/12/04 08:14:40;;;;;;;;;0.33;0.33;;;;;12.91;72.71;99268.34;5059736;28;45961;-45
2021/12/04 08:17:06;;;;;;;;;0.67;0.67;;;;;12.92;72.36;99258.66;5059676;28;45267;-46
2021/12/04 08:19:32;;;;;;;;;0.00;0.00;;;;;12.96;72.24;99271.59;5059638;28;45481;-45
2021/12/04 08:21:58;;;;;;;;;3.75;3.75;;;;;12.96;72.14;99261.06;5059703;28;45267;-46
2021/12/04 08:24:24;;;;;;;;;0.00;0.00;;;;;12.97;71.81;99268.03;5058136;28;47213;-46
2021/12/04 08:26:49;;;;;;;;;1.00;0.00;;;;;13.01;72.10;99266.13;5059583;28;45415;-45
2021/12/04 08:29:14;;;;;;;;;0.00;0.00;;;;;12.99;72.04;99278.50;5059862;28;45681;-45
2021/12/04 08:31:40;;;;;;;;;0.00;0.00;;;;;12.97;71.56;99267.22;5059712;28;45395;-49
2021/12/04 08:34:06;;;;;;;;;0.00;0.00;;;;;12.96;71.54;99279.53;5059395;28;45525;-45
2021/12/04 08:36:32;;;;;;;;;0.00;0.00;;;;;13.01;71.58;99284.59;5059728;28;45761;-46
2021/12/04 08:38:59;;;;;;;;;0.00;0.00;;;;;13.00;71.49;99290.78;5059767;28;45321;-45
2021/12/04 08:41:25;;;;;;;;;0.00;0.00;;;;;13.02;71.15;99281.03;5063086;28;45267;-47
2021/12/04 08:43:53;;;;;;;;;0.00;0.00;;;;;13.01;71.63;99282.78;5062849;28;46116;-44
2021/12/04 08:46:20;;;;;;;;;0.00;0.00;;;;;13.04;71.58;99300.25;5062826;28;45398;-45
2021/12/04 08:48:47;;;;;;;;;0.00;0.00;;;;;13.00;71.12;99289.00;5049646;28;45332;-46
2021/12/04 08:51:12;;;;;;;;;0.00;0.00;;;;;12.97;71.34;99301.50;5062783;28;45499;-45
2021/12/04 08:53:38;;;;;;;;;0.00;0.00;;;;;12.97;70.75;99299.69;5062883;28;46023;-46
2021/12/04 08:56:04;;;;;;;;;0.00;0.00;;;;;12.96;70.81;99307.69;5078415;28;45288;-47
2021/12/04 08:58:29;;;;;;;;;0.00;0.00;;;;;12.93;71.20;99311.31;5063016;28;45205;-45
2021/12/04 09:01:02;;;;;;;;;0.00;0.00;;;;;12.93;70.50;99328.91;5062891;28;45275;-44
2021/12/04 09:03:33;;;;;;;;;0.00;0.00;;;;;12.93;70.35;99323.63;5061125;28;47614;-45
2021/12/04 09:06:00;;;;;;;;;0.00;0.00;;;;;12.91;70.23;99322.88;5062418;28;45531;-49
2021/12/04 09:08:28;;;;;;;;;0.00;0.00;;;;;12.88;69.84;99323.88;5062692;28;45314;-46
2021/12/04 09:10:56;;;;;;;;;0.00;0.00;;;;;12.89;69.91;99335.25;5062092;27;45675;-45
2021/12/04 09:13:22;;;;;;;;;0.00;0.00;;;;;12.89;69.96;99341.38;5062362;28;46201;-46
2021/12/04 09:15:48;;;;;;;;;0.00;0.00;;;;;12.89;70.19;99344.00;5061059;28;45336;-46
2021/12/04 09:18:14;;;;;;;;;0.00;0.00;;;;;12.84;69.96;99364.44;5062528;28;45332;-46
2021/12/04 09:20:39;;;;;;;;;0.00;0.00;;;;;12.83;69.66;99353.06;5062157;28;45645;-45
2021/12/04 09:23:08;;;;;;;;;0.00;0.00;;;;;12.82;69.73;99350.50;5062613;28;45372;-48
2021/12/04 09:25:37;;;;;;;;;0.00;0.00;;;;;12.78;69.71;99367.34;5062160;28;45257;-45
2021/12/04 10:15:32;;;;;;;;;0.00;0.00;;;;;12.78;67.42;99435.91;5061559;28;46233;-51
2021/12/04 10:34:30;;;;;;;;;0.00;0.00;;;;;12.63;66.27;99461.16;5061084;28;45237;-51
2021/12/04 10:37:12;;;;;;;;;0.00;0.00;;;;;12.59;65.96;99467.47;5059643;28;47234;-47
2021/12/04 10:39:38;;;;;;;;;0.00;0.00;;;;;12.57;66.14;99459.63;5061048;28;45193;-46
2021/12/04 10:42:07;;;;;;;;;2.00;1.00;;;;;12.52;65.76;99472.16;5061137;28;45279;-47
2021/12/04 10:44:39;;;;;;;;;0.00;0.00;;;;;12.50;65.95;99459.06;5061156;28;45335;-48
2021/12/04 10:47:11;;;;;;;;;0.00;0.00;;;;;12.47;65.69;99468.88;5060827;28;46143;-47
2021/12/04 10:49:56;;;;;;;;;0.00;0.00;;;;;12.44;65.51;99451.41;5060946;28;45320;-45
2021/12/04 10:52:28;;;;;;;;;1.00;1.00;;;;;12.44;65.59;99466.34;5061120;28;45325;-46
2021/12/04 10:55:16;;;;;;;;;1.00;0.00;;;;;12.44;65.33;99468.97;5060898;28;45631;-45
2021/12/04 11:00:51;;;;;;;;;0.00;0.00;;;;;12.39;65.30;99469.19;5060785;28;45236;-50
2021/12/04 11:06:19;;;;;;;;;0.67;0.67;;;;;12.42;65.34;99478.75;5060768;28;45515;-45
2021/12/04 11:38:52;;;;;;;;;1.75;1.00;;;;;11.98;66.05;99508.59;5055115;28;45720;-47
2021/12/04 11:44:29;;;;;;;;;4.75;4.00;;;;;11.86;66.10;99531.81;5059917;28;45193;-48
2021/12/04 11:46:46;;;;;;;;;1.50;1.25;;;;;11.82;66.25;99534.63;5052329;28;45529;-50
2021/12/04 11:49:21;;;;;;;;;1.00;1.00;;;;;11.72;66.29;99547.28;5059894;28;45555;-47
2021/12/04 11:51:56;;;;;;;;;2.50;1.00;;;;;11.63;66.29;99551.09;5058633;28;47504;-48
2021/12/04 11:54:46;;;;;;;;;3.00;1.75;;;;;11.58;66.29;99560.94;5058642;28;45473;-45
2021/12/04 11:57:14;;;;;;;;;0.00;0.00;;;;;11.46;66.32;99549.13;5054410;28;45231;-46
2021/12/04 11:59:42;;;;;;;;;2.00;2.00;;;;;11.40;66.22;99540.59;5059922;28;45346;-49
2021/12/04 12:02:18;;;;;;;;;3.25;1.00;;;;;11.31;66.13;99547.91;5059556;28;47025;-46
2021/12/04 12:04:50;;;;;;;;;0.00;0.00;;;;;11.24;66.08;99551.66;5058627;28;45261;-48
2021/12/04 12:07:20;;;;;;;;;4.50;3.00;;;;;11.19;66.26;99550.97;5060112;28;45351;-47
2021/12/04 12:09:47;;;;;;;;;2.25;0.25;;;;;11.06;65.76;99556.66;5059547;28;45411;-45
2021/12/04 12:12:16;;;;;;;;;1.75;1.75;;;;;11.07;66.12;99565.41;5059809;28;45340;-45
2021/12/04 12:14:51;;;;;;;;;2.00;2.00;;;;;11.03;66.14;99572.56;5061213;28;45346;-46
2021/12/04 12:17:38;;;;;;;;;3.25;1.75;;;;;10.98;66.25;99570.97;5063288;28;45328;-49
2021/12/04 12:20:10;;;;;;;;;2.00;2.00;;;;;10.97;66.13;99578.03;5063322;28;45589;-46
2021/12/04 12:22:49;;;;;;;;;2.75;2.75;;;;;10.98;66.10;99581.50;5063070;28;47027;-48
2021/12/04 12:25:28;;;;;;;;;3.75;2.50;;;;;10.96;66.15;99585.97;5063003;28;45313;-47
2021/12/04 12:36:17;;;;;;;;;4.75;3.00;;;;;10.87;65.40;99629.19;5063149;28;45272;-49
2021/12/04 12:38:59;;;;;;;;;3.00;2.50;;;;;10.84;65.43;99640.66;5061479;28;45330;-47
2021/12/04 12:41:25;;;;;;;;;4.00;3.00;;;;;10.83;65.75;99638.94;5062841;28;45465;-47
2021/12/04 12:44:02;;;;;;;;;3.50;3.25;;;;;10.85;65.31;99637.09;5062811;28;46212;-46
2021/12/04 12:46:49;;;;;;;;;3.00;3.00;;;;;10.84;65.14;99651.19;5062534;28;45310;-47
2021/12/04 12:49:30;;;;;;;;;5.25;3.00;;;;;10.84;65.38;99650.28;5062802;28;45460;-48
2021/12/04 12:52:07;;;;;;;;;3.75;2.00;;;;;10.84;65.34;99648.53;5062736;28;45523;-47
2021/12/04 12:54:58;;;;;;;;;7.00;3.00;;;;;10.83;64.93;99652.06;5062543;28;46125;-46
2021/12/04 12:57:26;;;;;;;;;3.75;3.00;;;;;10.85;64.93;99659.91;5056642;28;45365;-47
2021/12/04 13:11:48;;;;;;;;;4.50;4.50;;;;;10.83;64.54;99664.34;5062612;28;45311;-48
2021/12/04 13:14:29;;;;;;;;;4.50;3.00;;;;;10.86;64.52;99695.78;5062604;28;45256;-46
2021/12/04 13:17:08;;;;;;;;;2.00;2.00;;;;;10.84;64.21;99702.88;5062472;28;46420;-45
2021/12/04 13:19:37;;;;;;;;;3.50;1.75;;;;;10.82;63.97;99696.81;5061026;28;45260;-49
2021/12/04 13:22:10;;;;;;;;;5.00;4.00;;;;;10.78;63.27;99698.69;5062331;28;45295;-45
2021/12/04 13:24:40;;;;;;;;;8.50;3.00;;;;;10.78;63.09;99682.91;5060543;28;45359;-46
2021/12/04 13:29:38;;;;;;;;;3.00;2.00;;;;;10.80;62.86;99682.84;5062316;28;45234;-49
2021/12/04 13:32:05;;;;;;;;;2.50;1.75;;;;;10.80;62.93;99669.72;5062035;28;45461;-46
2021/12/04 13:34:31;;;;;;;;;2.50;2.50;;;;;10.83;62.84;99680.13;5062155;28;45386;-45
2021/12/04 13:36:58;;;;;;;;;3.75;2.75;;;;;10.84;62.81;99682.72;5061866;28;46214;-49
2021/12/04 13:39:24;;;;;;;;;4.25;2.75;;;;;10.82;62.74;99687.16;5061912;28;45432;-50
2021/12/04 13:41:52;;;;;;;;;8.00;5.50;;;;;10.83;62.68;99696.75;5062035;28;45154;-46
2021/12/04 13:44:20;;;;;;;;;4.00;3.00;;;;;10.81;62.69;99698.56;5061970;28;45291;-50
2021/12/04 13:46:49;;;;;;;;;7.50;6.75;;;;;10.80;62.58;99702.09;5061530;28;46321;-47
2021/12/04 13:49:18;;;;;;;;;3.50;2.00;;;;;10.79;62.42;99689.88;5061711;28;45303;-48
2021/12/04 13:51:51;;;;;;;;;3.75;2.75;;;;;10.79;62.19;99692.50;5062008;28;45475;-49
2021/12/04 13:54:16;;;;;;;;;3.25;2.75;;;;;10.78;62.10;99696.03;5061759;28;45340;-45
2021/12/04 13:56:43;;;;;;;;;2.00;2.00;;;;;10.76;61.92;99697.00;5061585;28;45265;-46
2021/12/04 13:59:10;;;;;;;;;1.25;1.25;;;;;10.73;61.69;99695.34;5061833;28;45376;-48
2021/12/04 14:01:42;;;;;;;;;2.75;2.75;;;;;10.66;61.50;99675.41;5060511;28;45484;-48
2021/12/04 14:04:16;;;;;;;;;4.50;1.50;;;;;10.75;61.61;99695.28;5060115;28;45388;-48
2021/12/04 14:06:53;;;;;;;;;6.75;4.00;;;;;10.76;61.63;99699.63;5048577;28;47155;-47
2021/12/04 14:09:20;;;;;;;;;2.75;1.25;;;;;10.76;61.55;99695.22;5061310;28;45508;-46
2021/12/04 14:11:46;;;;;;;;;3.50;2.00;;;;;10.78;61.52;99703.06;5061716;28;45375;-46
2021/12/04 14:14:18;;;;;;;;;4.50;2.75;;;;;10.72;61.57;99694.47;5061519;28;45350;-45
2021/12/04 14:16:45;;;;;;;;;6.75;4.00;;;;;10.76;61.44;99703.09;5061013;28;46037;-45
2021/12/04 14:19:23;;;;;;;;;2.50;2.50;;;;;10.77;61.35;99699.56;5059725;28;45482;-45
2021/12/04 14:22:03;;;;;;;;;6.25;4.00;;;;;10.80;61.42;99698.63;5061492;28;45318;-45
2021/12/04 14:24:33;;;;;;;;;4.50;3.50;;;;;10.77;61.24;99703.94;5061280;28;45228;-44
2021/12/04 14:27:01;;;;;;;;;3.00;2.25;;;;;10.80;61.43;99699.47;5059990;28;46988;-44
2021/12/04 14:29:35;;;;;;;;;3.75;2.00;;;;;10.82;61.41;99717.84;5061403;28;45299;-44
2021/12/04 14:32:01;;;;;;;;;2.00;1.00;;;;;10.84;61.42;99723.88;5061100;28;45449;-46
2021/12/04 14:34:29;;;;;;;;;5.50;3.50;;;;;10.85;61.30;99725.63;5061112;28;45520;-46
2021/12/04 14:37:03;;;;;;;;;2.00;2.00;;;;;10.85;61.22;99723.81;5058393;28;47908;-46
2021/12/04 14:39:29;;;;;;;;;2.75;2.00;;;;;10.86;61.33;99727.34;5060887;28;45294;-47
2021/12/04 14:41:55;;;;;;;;;5.25;2.00;;;;;10.82;61.20;99736.22;5061165;28;45480;-47
2021/12/04 14:44:20;;;;;;;;;1.00;1.00;;;;;10.82;61.11;99741.50;5061260;28;45362;-49
2021/12/04 14:46:46;;;;;;;;;4.50;2.25;;;;;10.78;60.91;99747.72;5061233;28;45257;-45